createdAt,value
2017-11-25T00:00:21.907Z,23.83
2017-11-25T00:01:29.556Z,29.52
2017-11-25T00:02:37.846Z,30.50
2017-11-25T00:03:45.046Z,22.98
2017-11-25T00:04:52.763Z,25.60
2017-11-25T00:06:00.785Z,23.95
2017-11-25T00:07:09.044Z,28.70
2017-11-25T00:08:17.476Z,28.50
2017-11-25T00:09:24.603Z,29.35
2017-11-25T00:10:32.927Z,26.55
2017-11-25T00:11:39.734Z,24.65
2017-11-25T00:12:46.978Z,26.27
2017-11-25T00:13:55.287Z,29.40
2017-11-25T00:15:04.196Z,26.80
2017-11-25T00:16:11.491Z,28.17
2017-11-25T00:17:18.717Z,27.95
2017-11-25T00:18:30.620Z,27.50
2017-11-25T00:19:43.099Z,28.48
2017-11-25T00:20:50.473Z,26.85
2017-11-25T00:21:58.229Z,30.88
2017-11-25T00:23:08.905Z,28.15
2017-11-25T00:24:16.364Z,26.40
2017-11-25T00:25:23.521Z,25.58
2017-11-25T00:26:31.100Z,29.83
2017-11-25T00:27:38.579Z,29.92
2017-11-25T00:28:45.454Z,26.75
2017-11-25T00:29:51.662Z,27.65
2017-11-25T00:30:58.458Z,27.45
2017-11-25T00:32:04.874Z,23.65
2017-11-25T00:33:11.224Z,23.90
2017-11-25T00:34:20.766Z,25.55
2017-11-25T00:35:28.265Z,24.00
2017-11-25T00:36:34.919Z,25.00
2017-11-25T00:37:41.635Z,23.17
2017-11-25T00:38:48.125Z,22.20
2017-11-25T00:39:54.483Z,28.73
2017-11-25T00:41:01.204Z,21.48
2017-11-25T00:42:07.730Z,26.58
2017-11-25T00:43:14.238Z,23.02
2017-11-25T00:44:21.061Z,22.45
2017-11-25T00:45:28.561Z,26.48
2017-11-25T00:46:35.392Z,23.83
2017-11-25T00:47:42.402Z,21.83
2017-11-25T00:48:48.951Z,24.65
2017-11-25T00:49:58.781Z,23.83
2017-11-25T00:51:05.410Z,24.48
2017-11-25T00:52:11.707Z,26.85
2017-11-25T00:53:18.763Z,24.92
2017-11-25T00:54:25.315Z,22.50
2017-11-25T00:55:32.123Z,23.20
2017-11-25T00:56:38.450Z,24.30
2017-11-25T00:57:45.503Z,24.67
2017-11-25T00:58:51.982Z,23.33
2017-11-25T00:59:58.709Z,22.50
2017-11-25T01:01:05.294Z,20.20
2017-11-25T01:02:11.935Z,21.00
2017-11-25T01:03:18.259Z,23.27
2017-11-25T01:04:25.134Z,18.95
2017-11-25T01:05:31.245Z,24.23
2017-11-25T01:06:38.323Z,22.55
2017-11-25T01:07:44.469Z,20.52
2017-11-25T01:08:50.611Z,18.60
2017-11-25T01:09:59.742Z,18.15
2017-11-25T01:11:06.573Z,20.17
2017-11-25T01:12:13.752Z,18.12
2017-11-25T01:13:21.210Z,19.52
2017-11-25T01:14:28.343Z,19.83
2017-11-25T01:15:34.419Z,22.02
2017-11-25T01:16:41.095Z,20.95
2017-11-25T01:18:01.433Z,20.00
2017-11-25T01:19:09.102Z,20.45
2017-11-25T01:20:15.854Z,18.67
2017-11-25T01:21:22.565Z,21.83
2017-11-25T01:22:29.085Z,20.23
2017-11-25T01:23:36.739Z,17.55
2017-11-25T01:24:43.624Z,18.17
2017-11-25T01:25:50.082Z,18.58
2017-11-25T01:26:57.051Z,21.73
2017-11-25T01:28:03.733Z,18.30
2017-11-25T01:29:11.235Z,19.80
2017-11-25T01:30:19.329Z,19.42
2017-11-25T01:31:25.713Z,18.45
2017-11-25T01:32:33.427Z,19.17
2017-11-25T01:33:39.860Z,19.30
2017-11-25T01:34:46.465Z,18.90
2017-11-25T01:35:54.037Z,18.90
2017-11-25T01:37:00.305Z,25.52
2017-11-25T01:38:07.065Z,21.25
2017-11-25T01:39:16.389Z,20.75
2017-11-25T01:40:24.851Z,21.35
2017-11-25T01:41:31.738Z,18.77
2017-11-25T01:42:38.521Z,21.17
2017-11-25T01:43:44.823Z,18.25
2017-11-25T01:44:51.097Z,20.65
2017-11-25T01:45:58.464Z,19.25
2017-11-25T01:47:08.208Z,20.80
2017-11-25T01:48:14.669Z,20.08
2017-11-25T01:49:21.844Z,21.00
2017-11-25T01:50:29.288Z,20.95
2017-11-25T01:51:36.025Z,16.67
2017-11-25T01:52:46.281Z,17.23
2017-11-25T01:53:56.738Z,19.98
2017-11-25T01:55:04.488Z,19.60
2017-11-25T01:56:09.786Z,18.20
2017-11-25T01:57:15.236Z,18.55
2017-11-25T01:58:20.561Z,22.40
2017-11-25T01:59:26.570Z,20.37
2017-11-25T02:00:32.765Z,21.00
2017-11-25T02:01:37.703Z,18.27
2017-11-25T02:02:43.880Z,21.12
2017-11-25T02:03:49.849Z,19.37
2017-11-25T02:04:55.967Z,20.50
2017-11-25T02:06:01.710Z,18.37
2017-11-25T02:07:09.478Z,20.23
2017-11-25T02:08:15.563Z,19.55
2017-11-25T02:09:21.342Z,20.40
2017-11-25T02:10:26.948Z,18.42
2017-11-25T02:11:35.777Z,19.17
2017-11-25T02:12:41.583Z,23.90
2017-11-25T02:13:47.387Z,19.37
2017-11-25T02:14:55.558Z,25.45
2017-11-25T02:16:06.971Z,21.77
2017-11-25T02:17:12.786Z,22.23
2017-11-25T02:18:18.725Z,21.27
2017-11-25T02:19:24.596Z,20.50
2017-11-25T02:20:29.833Z,20.92
2017-11-25T02:21:35.580Z,24.85
2017-11-25T02:22:41.408Z,21.52
2017-11-25T02:23:47.068Z,23.20
2017-11-25T02:24:52.471Z,20.62
2017-11-25T02:25:57.879Z,21.90
2017-11-25T02:27:04.178Z,22.08
2017-11-25T02:28:09.575Z,24.00
2017-11-25T02:29:15.019Z,22.15
2017-11-25T02:30:21.193Z,24.35
2017-11-25T02:31:26.659Z,24.40
2017-11-25T02:32:32.409Z,24.08
2017-11-25T02:33:43.755Z,24.20
2017-11-25T02:34:49.241Z,23.52
2017-11-25T02:35:54.666Z,25.10
2017-11-25T02:37:00.643Z,27.20
2017-11-25T02:38:06.065Z,23.02
2017-11-25T02:39:12.461Z,21.25
2017-11-25T02:40:17.936Z,24.15
2017-11-25T02:41:23.700Z,24.70
2017-11-25T02:42:29.246Z,23.12
2017-11-25T02:43:34.702Z,24.12
2017-11-25T02:44:40.184Z,26.08
2017-11-25T02:45:48.678Z,28.10
2017-11-25T02:46:54.498Z,27.58
2017-11-25T02:48:00.016Z,23.77
2017-11-25T02:49:05.505Z,28.60
2017-11-25T02:50:10.931Z,27.13
2017-11-25T02:51:16.130Z,23.85
2017-11-25T02:52:21.301Z,28.60
2017-11-25T02:53:26.752Z,22.90
2017-11-25T02:54:32.020Z,27.17
2017-11-25T02:55:37.441Z,24.70
2017-11-25T02:56:42.845Z,26.65
2017-11-25T02:57:48.307Z,27.90
2017-11-25T02:58:53.725Z,27.30
2017-11-25T02:59:59.377Z,24.20
2017-11-25T03:01:04.977Z,25.58
2017-11-25T03:02:10.554Z,25.67
2017-11-25T03:03:17.599Z,27.15
2017-11-25T03:04:23.425Z,23.15
2017-11-25T03:05:29.536Z,24.17
2017-11-25T03:06:35.313Z,23.58
2017-11-25T03:07:41.393Z,22.90
2017-11-25T03:08:47.542Z,23.92
2017-11-25T03:09:53.326Z,22.13
2017-11-25T03:10:59.413Z,21.08
2017-11-25T03:12:05.377Z,21.58
2017-11-25T03:13:11.280Z,24.95
2017-11-25T03:14:16.743Z,25.33
2017-11-25T03:15:22.645Z,20.02
2017-11-25T03:16:27.699Z,20.80
2017-11-25T03:17:34.046Z,21.98
2017-11-25T03:18:40.225Z,22.30
2017-11-25T03:19:46.401Z,19.75
2017-11-25T03:20:52.358Z,22.45
2017-11-25T03:21:58.445Z,21.23
2017-11-25T03:23:04.512Z,20.05
2017-11-25T03:24:09.808Z,18.35
2017-11-25T03:25:15.718Z,22.85
2017-11-25T03:26:21.712Z,23.75
2017-11-25T03:27:33.498Z,20.85
2017-11-25T03:28:41.005Z,20.75
2017-11-25T03:29:46.926Z,22.60
2017-11-25T03:30:52.681Z,21.23
2017-11-25T03:31:58.824Z,22.90
2017-11-25T03:33:04.598Z,21.35
2017-11-25T03:34:10.752Z,22.40
2017-11-25T03:35:16.709Z,19.80
2017-11-25T03:36:22.825Z,18.02
2017-11-25T03:37:35.234Z,22.85
2017-11-25T03:38:41.313Z,19.77
2017-11-25T03:39:49.513Z,24.20
2017-11-25T03:40:55.414Z,22.02
2017-11-25T03:42:01.340Z,22.00
2017-11-25T03:43:07.488Z,19.62
2017-11-25T03:44:13.630Z,17.90
2017-11-25T03:45:19.749Z,22.37
2017-11-25T03:46:25.885Z,19.37
2017-11-25T03:47:36.545Z,23.23
2017-11-25T03:48:42.464Z,21.55
2017-11-25T03:49:48.541Z,21.35
2017-11-25T03:50:54.704Z,21.27
2017-11-25T03:52:00.797Z,18.67
2017-11-25T03:53:06.715Z,21.37
2017-11-25T03:54:12.545Z,19.00
2017-11-25T03:55:18.015Z,19.58
2017-11-25T03:56:23.204Z,21.05
2017-11-25T03:57:28.769Z,22.50
2017-11-25T03:58:34.900Z,22.15
2017-11-25T03:59:40.976Z,17.85
2017-11-25T04:00:46.436Z,21.00
2017-11-25T04:01:51.721Z,19.33
2017-11-25T04:02:57.895Z,22.67
2017-11-25T04:04:03.709Z,20.67
2017-11-25T04:05:09.859Z,19.62
2017-11-25T04:06:15.941Z,21.83
2017-11-25T04:07:22.061Z,19.42
2017-11-25T04:08:28.236Z,20.15
2017-11-25T04:09:34.028Z,20.65
2017-11-25T04:10:40.180Z,18.67
2017-11-25T04:11:46.417Z,17.10
2017-11-25T04:12:57.557Z,19.23
2017-11-25T04:14:03.728Z,17.15
2017-11-25T04:15:12.355Z,20.05
2017-11-25T04:16:18.503Z,17.67
2017-11-25T04:17:24.624Z,19.60
2017-11-25T04:18:30.753Z,16.55
2017-11-25T04:19:36.853Z,17.00
2017-11-25T04:20:42.993Z,16.77
2017-11-25T04:21:49.099Z,16.40
2017-11-25T04:22:55.214Z,18.55
2017-11-25T04:24:01.346Z,16.77
2017-11-25T04:25:07.569Z,16.20
2017-11-25T04:26:13.375Z,17.75
2017-11-25T04:27:19.495Z,19.95
2017-11-25T04:28:25.663Z,14.70
2017-11-25T04:29:31.806Z,15.40
2017-11-25T04:30:37.612Z,16.48
2017-11-25T04:31:43.748Z,16.17
2017-11-25T04:32:49.932Z,16.15
2017-11-25T04:33:56.061Z,14.07
2017-11-25T04:35:02.189Z,19.05
2017-11-25T04:36:08.339Z,15.00
2017-11-25T04:37:14.516Z,14.25
2017-11-25T04:38:20.595Z,14.13
2017-11-25T04:39:26.783Z,16.17
2017-11-25T04:40:32.898Z,13.55
2017-11-25T04:41:41.574Z,15.73
2017-11-25T04:42:47.708Z,14.30
2017-11-25T04:43:53.891Z,13.65
2017-11-25T04:44:59.775Z,14.27
2017-11-25T04:46:05.876Z,14.87
2017-11-25T04:47:11.950Z,13.27
2017-11-25T04:48:18.148Z,15.20
2017-11-25T04:49:24.232Z,13.07
2017-11-25T04:50:30.177Z,14.18
2017-11-25T04:51:36.302Z,15.95
2017-11-25T04:52:42.242Z,14.02
2017-11-25T04:53:48.373Z,13.73
2017-11-25T04:54:54.527Z,12.52
2017-11-25T04:56:00.613Z,14.68
2017-11-25T04:57:06.383Z,13.57
2017-11-25T04:58:12.493Z,14.90
2017-11-25T04:59:18.656Z,13.62
2017-11-25T05:00:23.945Z,13.48
2017-11-25T05:01:29.220Z,15.32
2017-11-25T05:02:34.310Z,16.52
2017-11-25T05:03:40.073Z,13.75
2017-11-25T05:04:46.396Z,11.35
2017-11-25T05:05:52.571Z,13.45
2017-11-25T05:07:05.114Z,16.00
2017-11-25T05:08:10.738Z,13.73
2017-11-25T05:09:17.009Z,12.77
2017-11-25T05:10:23.194Z,14.18
2017-11-25T05:11:28.953Z,16.23
2017-11-25T05:12:34.847Z,18.27
2017-11-25T05:13:41.044Z,14.95
2017-11-25T05:14:47.149Z,14.23
2017-11-25T05:15:53.262Z,13.57
2017-11-25T05:16:59.447Z,14.45
2017-11-25T05:18:05.546Z,14.70
2017-11-25T05:19:11.395Z,16.27
2017-11-25T05:20:17.558Z,13.55
2017-11-25T05:21:23.654Z,15.52
2017-11-25T05:22:29.897Z,15.40
2017-11-25T05:23:35.824Z,14.10
2017-11-25T05:24:41.937Z,15.18
2017-11-25T05:25:48.130Z,14.57
2017-11-25T05:26:53.815Z,14.13
2017-11-25T05:27:59.995Z,18.10
2017-11-25T05:29:05.942Z,15.48
2017-11-25T05:30:12.119Z,16.50
2017-11-25T05:31:18.189Z,14.15
2017-11-25T05:32:26.292Z,13.13
2017-11-25T05:33:32.398Z,14.35
2017-11-25T05:34:38.380Z,14.23
2017-11-25T05:35:44.540Z,14.75
2017-11-25T05:36:50.791Z,18.30
2017-11-25T05:37:56.806Z,16.00
2017-11-25T05:39:02.934Z,15.98
2017-11-25T05:40:09.123Z,15.45
2017-11-25T05:41:15.062Z,14.52
2017-11-25T05:42:22.998Z,17.05
2017-11-25T05:43:31.390Z,14.80
2017-11-25T05:44:38.120Z,16.80
2017-11-25T05:45:45.483Z,18.00
2017-11-25T05:46:54.212Z,15.68
2017-11-25T05:48:00.882Z,16.10
2017-11-25T05:49:07.338Z,18.30
2017-11-25T05:50:14.034Z,16.00
2017-11-25T05:51:21.036Z,18.85
2017-11-25T05:52:27.399Z,15.45
2017-11-25T05:53:33.931Z,15.85
2017-11-25T05:54:40.787Z,16.15
2017-11-25T05:55:47.486Z,16.05
2017-11-25T05:56:54.014Z,16.02
2017-11-25T05:58:01.525Z,15.77
2017-11-25T05:59:08.317Z,17.25
2017-11-25T06:00:14.884Z,17.00
2017-11-25T06:01:21.094Z,17.15
2017-11-25T06:02:27.781Z,14.73
2017-11-25T06:03:34.318Z,15.18
2017-11-25T06:04:40.885Z,16.20
2017-11-25T06:05:47.114Z,12.02
2017-11-25T06:06:54.541Z,14.85
2017-11-25T06:08:01.220Z,12.80
2017-11-25T06:09:08.088Z,14.40
2017-11-25T06:10:14.441Z,13.55
2017-11-25T06:11:21.642Z,12.93
2017-11-25T06:12:29.097Z,13.38
2017-11-25T06:13:35.850Z,13.68
2017-11-25T06:14:42.153Z,14.63
2017-11-25T06:15:49.560Z,12.48
2017-11-25T06:16:55.791Z,14.35
2017-11-25T06:18:05.311Z,12.98
2017-11-25T06:19:12.684Z,11.98
2017-11-25T06:20:19.441Z,12.48
2017-11-25T06:21:26.518Z,12.85
2017-11-25T06:22:32.625Z,11.75
2017-11-25T06:23:39.360Z,12.10
2017-11-25T06:24:45.542Z,13.23
2017-11-25T06:25:52.514Z,12.85
2017-11-25T06:26:59.575Z,11.55
2017-11-25T06:28:06.790Z,10.35
2017-11-25T06:29:13.742Z,11.05
2017-11-25T06:30:20.881Z,11.50
2017-11-25T06:31:32.759Z,10.45
2017-11-25T06:32:39.152Z,13.30
2017-11-25T06:33:46.240Z,12.37
2017-11-25T06:34:52.644Z,11.27
2017-11-25T06:35:59.231Z,13.07
2017-11-25T06:37:05.356Z,11.82
2017-11-25T06:38:12.071Z,10.95
2017-11-25T06:39:19.258Z,11.23
2017-11-25T06:40:26.000Z,12.52
2017-11-25T06:41:32.534Z,13.32
2017-11-25T06:42:38.993Z,11.30
2017-11-25T06:43:46.061Z,12.65
2017-11-25T06:44:57.127Z,11.45
2017-11-25T06:46:03.895Z,13.10
2017-11-25T06:47:10.963Z,14.52
2017-11-25T06:48:18.278Z,13.52
2017-11-25T06:49:24.587Z,12.43
2017-11-25T06:50:31.167Z,12.43
2017-11-25T06:51:37.934Z,16.23
2017-11-25T06:52:45.118Z,14.15
2017-11-25T06:53:52.037Z,14.10
2017-11-25T06:54:59.139Z,13.88
2017-11-25T06:56:05.320Z,14.48
2017-11-25T06:57:11.422Z,14.40
2017-11-25T06:58:17.547Z,13.35
2017-11-25T06:59:24.866Z,14.77
2017-11-25T07:00:31.877Z,15.75
2017-11-25T07:01:38.711Z,15.73
2017-11-25T07:02:45.575Z,15.43
2017-11-25T07:03:52.271Z,15.52
2017-11-25T07:04:58.919Z,14.20
2017-11-25T07:06:06.231Z,14.20
2017-11-25T07:07:14.228Z,16.20
2017-11-25T07:08:22.426Z,16.67
2017-11-25T07:09:29.758Z,16.15
2017-11-25T07:10:37.275Z,17.55
2017-11-25T07:11:44.575Z,13.48
2017-11-25T07:12:52.102Z,16.10
2017-11-25T07:14:00.772Z,14.13
2017-11-25T07:15:08.394Z,16.90
2017-11-25T07:16:16.269Z,16.20
2017-11-25T07:17:23.587Z,15.15
2017-11-25T07:18:31.304Z,15.65
2017-11-25T07:19:38.857Z,17.60
2017-11-25T07:20:45.284Z,15.88
2017-11-25T07:21:51.322Z,17.10
2017-11-25T07:22:57.484Z,16.48
2017-11-25T07:24:03.329Z,16.30
2017-11-25T07:25:10.874Z,15.48
2017-11-25T07:26:17.480Z,16.95
2017-11-25T07:27:23.654Z,17.75
2017-11-25T07:28:30.432Z,21.05
2017-11-25T07:29:37.091Z,20.85
2017-11-25T07:30:43.209Z,19.25
2017-11-25T07:31:49.509Z,19.85
2017-11-25T07:32:57.282Z,18.95
2017-11-25T07:34:03.848Z,20.37
2017-11-25T07:35:10.017Z,19.70
2017-11-25T07:36:16.293Z,20.80
2017-11-25T07:37:24.020Z,18.70
2017-11-25T07:38:30.204Z,20.12
2017-11-25T07:39:36.408Z,21.80
2017-11-25T07:40:42.558Z,21.02
2017-11-25T07:41:48.842Z,22.05
2017-11-25T07:42:55.114Z,19.62
2017-11-25T07:44:01.333Z,20.20
2017-11-25T07:45:07.584Z,23.55
2017-11-25T07:46:14.065Z,21.48
2017-11-25T07:47:20.187Z,23.52
2017-11-25T07:48:26.360Z,20.45
2017-11-25T07:49:38.008Z,24.23
2017-11-25T07:50:44.091Z,20.33
2017-11-25T07:51:50.242Z,21.25
2017-11-25T07:52:56.409Z,22.35
2017-11-25T07:54:02.550Z,21.95
2017-11-25T07:55:08.842Z,20.80
2017-11-25T07:56:15.036Z,19.77
2017-11-25T07:57:21.275Z,19.83
2017-11-25T07:58:27.484Z,21.73
2017-11-25T07:59:33.656Z,21.80
2017-11-25T08:00:39.818Z,20.95
2017-11-25T08:01:46.188Z,20.88
2017-11-25T08:02:52.270Z,21.37
2017-11-25T08:03:58.541Z,19.48
2017-11-25T08:05:04.746Z,21.90
2017-11-25T08:06:11.027Z,23.27
2017-11-25T08:07:18.778Z,18.80
2017-11-25T08:08:24.956Z,20.35
2017-11-25T08:09:30.902Z,22.23
2017-11-25T08:10:37.126Z,24.05
2017-11-25T08:11:43.531Z,18.65
2017-11-25T08:12:49.769Z,22.37
2017-11-25T08:13:56.072Z,21.50
2017-11-25T08:15:02.395Z,20.00
2017-11-25T08:16:08.563Z,23.23
2017-11-25T08:17:14.519Z,22.77
2017-11-25T08:18:20.803Z,22.98
2017-11-25T08:19:26.883Z,21.15
2017-11-25T08:20:32.816Z,21.20
2017-11-25T08:21:39.210Z,22.67
2017-11-25T08:22:45.215Z,20.60
2017-11-25T08:23:51.520Z,16.83
2017-11-25T08:24:57.936Z,21.70
2017-11-25T08:26:04.204Z,19.95
2017-11-25T08:27:10.625Z,20.65
2017-11-25T08:28:17.795Z,18.10
2017-11-25T08:29:24.109Z,19.00
2017-11-25T08:30:30.676Z,21.87
2017-11-25T08:31:42.228Z,19.30
2017-11-25T08:32:48.600Z,24.80
2017-11-25T08:33:54.930Z,18.80
2017-11-25T08:35:01.117Z,20.85
2017-11-25T08:36:07.089Z,24.60
2017-11-25T08:37:13.392Z,20.35
2017-11-25T08:38:19.315Z,21.87
2017-11-25T08:39:25.448Z,22.75
2017-11-25T08:40:31.695Z,20.88
2017-11-25T08:41:38.404Z,21.80
2017-11-25T08:42:44.693Z,19.23
2017-11-25T08:43:50.892Z,19.77
2017-11-25T08:44:57.095Z,20.55
2017-11-25T08:46:03.423Z,20.80
2017-11-25T08:47:09.934Z,21.37
2017-11-25T08:48:19.337Z,19.52
2017-11-25T08:49:26.120Z,20.67
2017-11-25T08:50:32.402Z,19.20
2017-11-25T08:51:38.374Z,16.10
2017-11-25T08:52:44.668Z,19.40
2017-11-25T08:53:50.936Z,17.73
2017-11-25T08:54:57.216Z,19.60
2017-11-25T08:56:03.491Z,17.05
2017-11-25T08:57:09.641Z,15.63
2017-11-25T08:58:15.776Z,19.40
2017-11-25T08:59:21.704Z,17.27
2017-11-25T09:00:27.793Z,16.40
2017-11-25T09:01:33.906Z,20.35
2017-11-25T09:02:40.370Z,17.48
2017-11-25T09:03:46.551Z,16.25
2017-11-25T09:04:52.682Z,17.17
2017-11-25T09:05:58.844Z,17.40
2017-11-25T09:07:04.979Z,17.33
2017-11-25T09:08:11.088Z,18.10
2017-11-25T09:09:17.245Z,18.10
2017-11-25T09:10:23.353Z,16.87
2017-11-25T09:11:29.512Z,16.20
2017-11-25T09:12:36.868Z,17.23
2017-11-25T09:13:44.520Z,15.52
2017-11-25T09:14:51.927Z,17.75
2017-11-25T09:15:59.334Z,16.90
2017-11-25T09:17:06.163Z,15.18
2017-11-25T09:18:14.032Z,18.23
2017-11-25T09:19:21.036Z,16.90
2017-11-25T09:20:27.861Z,17.10
2017-11-25T09:21:34.428Z,17.08
2017-11-25T09:22:40.892Z,16.17
2017-11-25T09:23:55.212Z,21.55
2017-11-25T09:25:02.649Z,16.05
2017-11-25T09:26:08.692Z,17.10
2017-11-25T09:27:15.911Z,16.35
2017-11-25T09:28:23.025Z,17.00
2017-11-25T09:29:28.960Z,17.35
2017-11-25T09:30:36.691Z,18.17
2017-11-25T09:31:44.967Z,19.17
2017-11-25T09:32:50.797Z,18.30
2017-11-25T09:33:57.530Z,18.90
2017-11-25T09:35:04.580Z,17.83
2017-11-25T09:36:11.782Z,16.80
2017-11-25T09:37:18.085Z,17.85
2017-11-25T09:38:25.888Z,19.95
2017-11-25T09:39:32.898Z,16.58
2017-11-25T09:40:40.355Z,16.80
2017-11-25T09:41:48.432Z,16.83
2017-11-25T09:42:55.790Z,18.48
2017-11-25T09:44:03.060Z,16.83
2017-11-25T09:45:10.711Z,14.65
2017-11-25T09:46:17.411Z,18.70
2017-11-25T09:47:24.219Z,14.30
2017-11-25T09:48:31.186Z,18.52
2017-11-25T09:49:38.142Z,16.48
2017-11-25T09:50:44.736Z,18.73
2017-11-25T09:51:50.916Z,18.40
2017-11-25T09:52:57.506Z,17.92
2017-11-25T09:54:05.257Z,20.45
2017-11-25T09:55:12.972Z,15.20
2017-11-25T09:56:20.383Z,17.77
2017-11-25T09:57:26.887Z,15.40
2017-11-25T09:58:34.286Z,15.18
2017-11-25T09:59:40.777Z,15.18
2017-11-25T10:00:46.661Z,16.23
2017-11-25T10:01:52.805Z,18.15
2017-11-25T10:02:58.947Z,14.95
2017-11-25T10:04:05.055Z,13.98
2017-11-25T10:05:11.441Z,15.65
2017-11-25T10:06:19.046Z,13.45
2017-11-25T10:07:28.184Z,15.77
2017-11-25T10:08:35.497Z,13.00
2017-11-25T10:09:43.314Z,14.93
2017-11-25T10:10:51.766Z,12.52
2017-11-25T10:11:57.894Z,13.27
2017-11-25T10:13:04.096Z,14.93
2017-11-25T10:14:10.255Z,12.30
2017-11-25T10:15:16.459Z,14.65
2017-11-25T10:16:22.632Z,12.85
2017-11-25T10:17:28.783Z,13.20
2017-11-25T10:18:34.881Z,14.50
2017-11-25T10:19:41.003Z,13.23
2017-11-25T10:20:47.225Z,13.13
2017-11-25T10:21:53.326Z,11.75
2017-11-25T10:22:59.525Z,14.65
2017-11-25T10:24:05.648Z,12.90
2017-11-25T10:25:11.773Z,14.43
2017-11-25T10:26:17.989Z,13.05
2017-11-25T10:27:24.179Z,12.90
2017-11-25T10:28:30.326Z,12.57
2017-11-25T10:29:36.477Z,11.43
2017-11-25T10:30:42.628Z,11.23
2017-11-25T10:31:48.758Z,10.68
2017-11-25T10:32:54.912Z,12.02
2017-11-25T10:34:01.126Z,10.20
2017-11-25T10:35:07.251Z,9.95
2017-11-25T10:36:13.370Z,11.45
2017-11-25T10:37:19.341Z,10.15
2017-11-25T10:38:25.454Z,9.95
2017-11-25T10:39:31.568Z,10.38
2017-11-25T10:40:37.646Z,9.07
2017-11-25T10:41:44.294Z,9.57
2017-11-25T10:42:50.955Z,9.75
2017-11-25T10:43:57.060Z,8.85
2017-11-25T10:45:03.047Z,8.95
2017-11-25T10:46:08.970Z,9.52
2017-11-25T10:47:14.937Z,8.55
2017-11-25T10:48:21.184Z,9.52
2017-11-25T10:49:29.006Z,8.88
2017-11-25T10:50:34.920Z,9.55
2017-11-25T10:51:41.013Z,7.85
2017-11-25T10:52:46.936Z,8.50
2017-11-25T10:53:53.005Z,9.40
2017-11-25T10:54:58.962Z,7.82
2017-11-25T10:56:05.040Z,7.70
2017-11-25T10:57:11.120Z,7.82
2017-11-25T10:58:17.253Z,8.40
2017-11-25T10:59:23.388Z,8.50
2017-11-25T11:00:29.481Z,7.72
2017-11-25T11:01:35.672Z,6.32
2017-11-25T11:02:41.820Z,6.78
2017-11-25T11:03:47.795Z,6.70
2017-11-25T11:04:58.767Z,6.10
2017-11-25T11:06:04.701Z,6.15
2017-11-25T11:07:10.844Z,7.32
2017-11-25T11:08:16.777Z,5.75
2017-11-25T11:09:22.966Z,6.12
2017-11-25T11:10:29.130Z,5.75
2017-11-25T11:11:35.363Z,5.68
2017-11-25T11:12:41.914Z,5.15
2017-11-25T11:13:47.899Z,5.82
2017-11-25T11:14:54.072Z,7.72
2017-11-25T11:16:00.008Z,5.65
2017-11-25T11:17:06.159Z,5.57
2017-11-25T11:18:12.099Z,6.40
2017-11-25T11:19:18.392Z,4.87
2017-11-25T11:20:24.484Z,4.50
2017-11-25T11:21:30.585Z,4.10
2017-11-25T11:22:36.691Z,4.78
2017-11-25T11:23:42.800Z,4.20
2017-11-25T11:24:49.009Z,4.05
2017-11-25T11:25:55.120Z,5.20
2017-11-25T11:27:01.334Z,4.60
2017-11-25T11:28:07.581Z,4.05
2017-11-25T11:29:13.679Z,4.85
2017-11-25T11:30:21.797Z,4.47
2017-11-25T11:31:27.929Z,4.45
2017-11-25T11:32:33.920Z,4.55
2017-11-25T11:33:43.931Z,4.20
2017-11-25T11:34:50.138Z,4.40
2017-11-25T11:35:56.236Z,4.47
2017-11-25T11:37:02.394Z,4.37
2017-11-25T11:38:08.049Z,5.40
2017-11-25T11:39:14.114Z,5.47
2017-11-25T11:40:20.279Z,4.07
2017-11-25T11:41:26.261Z,5.10
2017-11-25T11:42:38.300Z,5.28
2017-11-25T11:43:44.385Z,5.00
2017-11-25T11:44:50.525Z,8.63
2017-11-25T11:46:01.588Z,4.68
2017-11-25T11:47:07.722Z,4.65
2017-11-25T11:48:13.842Z,7.22
2017-11-25T11:49:19.972Z,4.15
2017-11-25T11:50:26.127Z,3.42
2017-11-25T11:51:32.263Z,4.07
2017-11-25T11:52:38.426Z,4.97
2017-11-25T11:53:44.552Z,4.57
2017-11-25T11:54:50.751Z,3.92
2017-11-25T11:55:56.933Z,3.67
2017-11-25T11:57:03.064Z,3.75
2017-11-25T11:58:09.219Z,3.83
2017-11-25T11:59:15.339Z,4.03
2017-11-25T12:00:20.948Z,4.57
2017-11-25T12:01:29.561Z,4.43
2017-11-25T12:02:35.610Z,4.35
2017-11-25T12:03:42.583Z,3.30
2017-11-25T12:04:48.511Z,5.03
2017-11-25T12:05:54.453Z,4.60
2017-11-25T12:07:00.658Z,3.70
2017-11-25T12:08:06.581Z,3.90
2017-11-25T12:09:12.722Z,4.15
2017-11-25T12:10:18.698Z,4.32
2017-11-25T12:11:24.664Z,3.70
2017-11-25T12:12:30.815Z,4.28
2017-11-25T12:13:36.930Z,3.20
2017-11-25T12:14:43.096Z,3.22
2017-11-25T12:15:49.052Z,3.22
2017-11-25T12:16:55.231Z,2.92
2017-11-25T12:18:01.393Z,3.55
2017-11-25T12:19:07.517Z,3.35
2017-11-25T12:20:18.933Z,2.80
2017-11-25T12:21:24.879Z,3.65
2017-11-25T12:22:31.112Z,3.15
2017-11-25T12:23:37.234Z,4.43
2017-11-25T12:24:43.349Z,3.37
2017-11-25T12:25:49.508Z,3.53
2017-11-25T12:26:57.716Z,3.45
2017-11-25T12:28:06.952Z,2.40
2017-11-25T12:29:13.129Z,3.45
2017-11-25T12:30:19.588Z,3.80
2017-11-25T12:31:25.783Z,2.28
2017-11-25T12:32:31.925Z,2.70
2017-11-25T12:33:37.897Z,2.72
2017-11-25T12:34:44.031Z,2.60
2017-11-25T12:35:50.331Z,2.50
2017-11-25T12:37:02.416Z,2.08
2017-11-25T12:38:08.532Z,2.08
2017-11-25T12:39:14.675Z,2.40
2017-11-25T12:40:26.473Z,1.80
2017-11-25T12:41:35.144Z,1.95
2017-11-25T12:42:41.322Z,3.15
2017-11-25T12:43:47.238Z,1.87
2017-11-25T12:44:53.367Z,1.95
2017-11-25T12:45:59.529Z,1.92
2017-11-25T12:47:06.451Z,1.60
2017-11-25T12:48:12.645Z,2.20
2017-11-25T12:49:18.605Z,2.00
2017-11-25T12:50:24.858Z,1.83
2017-11-25T12:51:30.787Z,1.75
2017-11-25T12:52:36.905Z,2.00
2017-11-25T12:53:42.820Z,6.35
2017-11-25T12:54:49.039Z,1.40
2017-11-25T12:55:55.047Z,2.28
2017-11-25T12:57:02.102Z,1.45
2017-11-25T12:58:08.032Z,2.03
2017-11-25T12:59:14.159Z,1.67
2017-11-25T13:00:20.572Z,2.28
2017-11-25T13:01:26.787Z,1.70
2017-11-25T13:02:32.972Z,2.10
2017-11-25T13:03:39.281Z,3.22
2017-11-25T13:04:45.447Z,2.30
2017-11-25T13:05:51.602Z,2.20
2017-11-25T13:06:57.774Z,2.20
2017-11-25T13:08:03.997Z,2.05
2017-11-25T13:09:10.169Z,2.55
2017-11-25T13:10:17.807Z,1.95
2017-11-25T13:11:24.031Z,1.90
2017-11-25T13:12:30.032Z,1.70
2017-11-25T13:13:36.162Z,1.90
2017-11-25T13:14:42.367Z,2.33
2017-11-25T13:15:49.053Z,1.92
2017-11-25T13:16:55.166Z,1.85
2017-11-25T13:18:01.334Z,1.60
2017-11-25T13:19:07.480Z,1.55
2017-11-25T13:20:14.004Z,1.35
2017-11-25T13:21:20.190Z,1.08
2017-11-25T13:22:26.418Z,1.02
2017-11-25T13:23:35.273Z,1.23
2017-11-25T13:24:41.789Z,1.10
2017-11-25T13:25:47.969Z,0.95
2017-11-25T13:26:54.211Z,1.33
2017-11-25T13:28:00.382Z,0.80
2017-11-25T13:29:06.603Z,0.93
2017-11-25T13:30:12.795Z,1.40
2017-11-25T13:31:18.935Z,1.10
2017-11-25T13:32:25.570Z,1.02
2017-11-25T13:33:31.722Z,0.70
2017-11-25T13:34:37.846Z,1.10
2017-11-25T13:35:44.035Z,1.12
2017-11-25T13:36:53.289Z,1.00
2017-11-25T13:37:59.487Z,0.90
2017-11-25T13:39:05.357Z,1.23
2017-11-25T13:40:11.492Z,1.58
2017-11-25T13:41:17.591Z,1.45
2017-11-25T13:42:23.852Z,1.35
2017-11-25T13:43:29.965Z,1.37
2017-11-25T13:44:35.816Z,1.70
2017-11-25T13:45:42.074Z,1.37
2017-11-25T13:46:48.065Z,1.90
2017-11-25T13:47:53.856Z,1.87
2017-11-25T13:49:00.390Z,1.60
2017-11-25T13:50:06.581Z,1.60
2017-11-25T13:51:14.668Z,1.27
2017-11-25T13:52:20.872Z,1.02
2017-11-25T13:53:26.893Z,1.33
2017-11-25T13:54:33.055Z,1.40
2017-11-25T13:55:39.245Z,2.00
2017-11-25T13:56:45.270Z,2.30
2017-11-25T13:57:51.494Z,1.85
2017-11-25T13:58:57.603Z,1.30
2017-11-25T14:00:03.609Z,2.08
2017-11-25T14:01:09.730Z,2.15
2017-11-25T14:02:15.893Z,2.05
2017-11-25T14:03:25.869Z,2.42
2017-11-25T14:04:31.932Z,1.80
2017-11-25T14:05:38.059Z,1.90
2017-11-25T14:06:43.743Z,1.83
2017-11-25T14:07:49.728Z,1.85
2017-11-25T14:08:55.843Z,1.50
2017-11-25T14:10:01.697Z,1.58
2017-11-25T14:11:07.681Z,1.48
2017-11-25T14:12:13.544Z,1.42
2017-11-25T14:13:19.748Z,1.10
2017-11-25T14:14:26.563Z,1.40
2017-11-25T14:15:32.394Z,1.25
2017-11-25T14:16:38.212Z,0.80
2017-11-25T14:17:44.130Z,2.40
2017-11-25T14:18:50.373Z,1.20
2017-11-25T14:19:56.574Z,1.00
2017-11-25T14:21:02.778Z,1.12
2017-11-25T14:22:08.935Z,1.17
2017-11-25T14:23:15.096Z,1.00
2017-11-25T14:24:21.240Z,1.25
2017-11-25T14:25:27.101Z,1.02